createdAt,value
2018-12-16T00:00:58.548Z,28.70
2018-12-16T00:03:25.967Z,26.83
2018-12-16T00:05:54.379Z,26.50
2018-12-16T00:08:21.729Z,29.27
2018-12-16T00:10:51.118Z,27.60
2018-12-16T00:13:20.435Z,27.70
2018-12-16T00:15:47.864Z,27.03
2018-12-16T00:18:16.137Z,27.50
2018-12-16T00:20:43.583Z,28.37
2018-12-16T00:23:12.046Z,27.23
2018-12-16T00:25:39.468Z,28.17
2018-12-16T00:28:06.868Z,28.33
2018-12-16T00:30:34.327Z,27.47
2018-12-16T00:33:01.872Z,27.70
2018-12-16T00:35:30.177Z,28.60
2018-12-16T00:37:57.496Z,26.97
2018-12-16T00:40:24.854Z,26.30
2018-12-16T00:42:52.201Z,27.00
2018-12-16T00:45:19.516Z,27.27
2018-12-16T00:47:47.574Z,26.43
2018-12-16T00:50:16.121Z,26.77
2018-12-16T00:52:43.385Z,27.30
2018-12-16T00:55:11.644Z,26.87
2018-12-16T00:57:38.965Z,25.77
2018-12-16T01:00:10.150Z,28.60
2018-12-16T01:02:42.741Z,26.23
2018-12-16T01:05:10.178Z,25.87
2018-12-16T01:07:38.460Z,28.20
2018-12-16T01:10:06.597Z,25.70
2018-12-16T01:12:33.945Z,25.33
2018-12-16T01:15:01.224Z,25.73
2018-12-16T01:17:28.552Z,26.53
2018-12-16T01:19:55.920Z,25.30
2018-12-16T01:22:23.195Z,25.00
2018-12-16T01:24:50.556Z,25.67
2018-12-16T01:27:17.914Z,24.53
2018-12-16T01:29:45.226Z,24.37
2018-12-16T01:32:12.585Z,24.20
2018-12-16T01:34:39.902Z,25.03
2018-12-16T01:37:09.241Z,23.93
2018-12-16T01:39:36.553Z,23.60
2018-12-16T01:42:03.842Z,22.90
2018-12-16T01:44:31.143Z,22.73
2018-12-16T01:46:59.413Z,22.60
2018-12-16T01:49:26.695Z,22.70
2018-12-16T01:51:54.007Z,23.53
2018-12-16T01:54:21.333Z,21.90
2018-12-16T01:56:48.655Z,21.87
2018-12-16T01:59:16.009Z,21.30
2018-12-16T02:01:45.260Z,21.20
2018-12-16T02:04:14.519Z,21.33
2018-12-16T02:06:41.815Z,21.10
2018-12-16T02:09:11.994Z,19.57
2018-12-16T02:11:39.323Z,20.97
2018-12-16T02:14:06.615Z,22.10
2018-12-16T02:16:33.911Z,20.00
2018-12-16T02:19:01.245Z,20.17
2018-12-16T02:21:28.601Z,20.13
2018-12-16T02:23:56.944Z,19.70
2018-12-16T02:26:24.293Z,20.27
2018-12-16T02:28:51.645Z,19.00
2018-12-16T02:31:18.931Z,19.17
2018-12-16T02:33:46.293Z,17.97
2018-12-16T02:36:13.641Z,16.10
2018-12-16T02:38:40.990Z,15.00
2018-12-16T02:41:08.339Z,15.50
2018-12-16T02:43:35.678Z,15.63
2018-12-16T02:46:02.992Z,15.30
2018-12-16T02:48:30.488Z,15.30
2018-12-16T02:50:58.683Z,16.60
2018-12-16T02:53:25.992Z,15.70
2018-12-16T02:55:54.215Z,14.17
2018-12-16T02:58:21.525Z,14.17
2018-12-16T03:00:49.751Z,13.13
2018-12-16T03:03:17.088Z,13.57
2018-12-16T03:05:44.410Z,14.30
2018-12-16T03:08:11.764Z,14.27
2018-12-16T03:10:39.081Z,15.37
2018-12-16T03:13:07.379Z,14.47
2018-12-16T03:15:34.738Z,13.77
2018-12-16T03:18:04.008Z,14.10
2018-12-16T03:20:32.279Z,14.07
2018-12-16T03:23:00.588Z,15.40
2018-12-16T03:25:27.905Z,14.40
2018-12-16T03:27:55.294Z,16.20
2018-12-16T03:30:23.409Z,15.90
2018-12-16T03:32:50.844Z,15.53
2018-12-16T03:35:18.176Z,16.30
2018-12-16T03:37:46.457Z,18.43
2018-12-16T03:40:13.768Z,18.23
2018-12-16T03:42:41.163Z,18.43
2018-12-16T03:45:09.457Z,18.40
2018-12-16T03:47:36.772Z,18.93
2018-12-16T03:50:04.192Z,19.67
2018-12-16T03:52:31.520Z,20.23
2018-12-16T03:54:58.841Z,19.63
2018-12-16T03:57:26.127Z,19.20
2018-12-16T03:59:53.453Z,19.53
2018-12-16T04:02:21.789Z,19.47
2018-12-16T04:04:49.136Z,18.93
2018-12-16T04:07:17.406Z,19.60
2018-12-16T04:09:44.765Z,20.40
2018-12-16T04:12:12.087Z,20.73
2018-12-16T04:14:39.399Z,20.97
2018-12-16T04:17:07.706Z,20.43
2018-12-16T04:19:35.074Z,21.43
2018-12-16T04:22:02.436Z,21.80
2018-12-16T04:24:29.809Z,20.77
2018-12-16T04:26:58.053Z,21.40
2018-12-16T04:29:26.329Z,21.03
2018-12-16T04:31:53.620Z,22.80
2018-12-16T04:34:21.886Z,23.67
2018-12-16T04:36:49.237Z,22.00
2018-12-16T04:39:17.484Z,21.97
2018-12-16T04:41:44.797Z,22.63
2018-12-16T04:44:12.116Z,22.70
2018-12-16T04:46:40.420Z,21.80
2018-12-16T04:49:07.769Z,21.40
2018-12-16T04:51:35.087Z,22.77
2018-12-16T04:54:02.400Z,24.07
2018-12-16T04:56:29.762Z,22.53
2018-12-16T04:58:57.083Z,24.07
2018-12-16T05:01:25.397Z,23.30
2018-12-16T05:03:52.761Z,23.80
2018-12-16T05:06:20.085Z,23.20
2018-12-16T05:08:47.382Z,23.97
2018-12-16T05:11:14.715Z,23.50
2018-12-16T05:13:43.085Z,25.53
2018-12-16T05:16:10.425Z,24.00
2018-12-16T05:18:37.753Z,24.10
2018-12-16T05:21:05.068Z,22.87
2018-12-16T05:23:32.430Z,23.13
2018-12-16T05:25:59.715Z,23.67
2018-12-16T05:28:27.137Z,22.50
2018-12-16T05:30:54.537Z,22.53
2018-12-16T05:33:22.769Z,23.37
2018-12-16T05:35:50.104Z,23.97
2018-12-16T05:38:19.369Z,23.20
2018-12-16T05:40:47.646Z,23.07
2018-12-16T05:43:14.956Z,23.30
2018-12-16T05:45:42.303Z,21.27
2018-12-16T05:48:09.653Z,21.83
2018-12-16T05:50:36.959Z,22.97
2018-12-16T05:53:04.291Z,23.17
2018-12-16T05:55:34.834Z,22.20
2018-12-16T05:58:02.141Z,22.20
2018-12-16T06:00:30.466Z,21.30
2018-12-16T06:02:57.857Z,23.10
2018-12-16T06:05:25.188Z,22.23
2018-12-16T06:07:52.491Z,22.37
2018-12-16T06:10:19.828Z,23.13
2018-12-16T06:12:48.140Z,22.80
2018-12-16T06:15:15.504Z,23.30
2018-12-16T06:17:44.805Z,22.57
2018-12-16T06:20:13.115Z,22.40
2018-12-16T06:22:40.429Z,23.30
2018-12-16T06:25:07.760Z,24.07
2018-12-16T06:27:35.096Z,21.27
2018-12-16T06:30:02.431Z,22.20
2018-12-16T06:32:29.725Z,22.97
2018-12-16T06:34:57.089Z,23.33
2018-12-16T06:37:24.449Z,24.20
2018-12-16T06:39:51.730Z,22.50
2018-12-16T06:42:19.977Z,23.07
2018-12-16T06:44:48.321Z,21.50
2018-12-16T06:47:15.640Z,22.17
2018-12-16T06:49:43.835Z,20.77
2018-12-16T06:52:11.198Z,21.70
2018-12-16T06:54:38.475Z,21.83
2018-12-16T06:57:07.818Z,22.33
2018-12-16T06:59:36.117Z,21.77
2018-12-16T07:02:04.606Z,22.00
2018-12-16T07:04:33.402Z,20.47
2018-12-16T07:07:00.761Z,21.27
2018-12-16T07:09:28.052Z,21.57
2018-12-16T07:11:55.692Z,21.90
2018-12-16T07:14:23.156Z,21.30
2018-12-16T07:16:50.703Z,21.13
2018-12-16T07:19:18.140Z,20.37
2018-12-16T07:21:46.392Z,19.30
2018-12-16T07:24:13.741Z,22.10
2018-12-16T07:26:41.087Z,19.97
2018-12-16T07:29:08.573Z,20.03
2018-12-16T07:31:35.976Z,19.13
2018-12-16T07:34:03.290Z,19.10
2018-12-16T07:36:30.579Z,20.57
2018-12-16T07:38:57.909Z,19.13
2018-12-16T07:41:25.222Z,19.90
2018-12-16T07:43:52.586Z,18.43
2018-12-16T07:46:19.878Z,18.20
2018-12-16T07:48:47.331Z,19.30
2018-12-16T07:51:15.020Z,17.40
2018-12-16T07:53:42.374Z,19.00
2018-12-16T07:56:09.680Z,19.43
2018-12-16T07:58:37.251Z,18.87
2018-12-16T08:01:04.615Z,18.70
2018-12-16T08:03:32.878Z,17.33
2018-12-16T08:06:00.303Z,18.80
2018-12-16T08:08:27.616Z,18.20
2018-12-16T08:10:55.910Z,16.27
2018-12-16T08:13:23.254Z,17.10
2018-12-16T08:15:50.564Z,16.97
2018-12-16T08:18:17.909Z,16.07
2018-12-16T08:20:45.229Z,16.23
2018-12-16T08:23:12.515Z,15.90
2018-12-16T08:25:39.853Z,16.30
2018-12-16T08:28:08.108Z,15.30
2018-12-16T08:30:35.432Z,16.10
2018-12-16T08:33:04.621Z,17.33
2018-12-16T08:35:31.920Z,15.87
2018-12-16T08:38:00.195Z,16.70
2018-12-16T08:40:27.466Z,18.37
2018-12-16T08:42:55.684Z,16.60
2018-12-16T08:45:23.983Z,17.40
2018-12-16T08:47:51.283Z,17.70
2018-12-16T08:50:19.557Z,15.80
2018-12-16T08:52:46.845Z,15.70
2018-12-16T08:55:16.081Z,15.73
2018-12-16T08:57:43.428Z,16.23
2018-12-16T09:00:10.766Z,15.70
2018-12-16T09:02:39.947Z,16.33
2018-12-16T09:05:08.260Z,16.03
2018-12-16T09:07:37.437Z,15.60
2018-12-16T09:10:08.006Z,15.33
2018-12-16T09:12:35.604Z,15.30
2018-12-16T09:15:04.645Z,15.30
2018-12-16T09:17:32.006Z,14.80
2018-12-16T09:19:59.297Z,15.47
2018-12-16T09:22:26.657Z,15.50
2018-12-16T09:24:54.878Z,15.67
2018-12-16T09:27:22.237Z,15.30
2018-12-16T09:29:49.523Z,15.30
2018-12-16T09:32:17.752Z,14.33
2018-12-16T09:34:45.087Z,14.70
2018-12-16T09:37:12.382Z,14.90
2018-12-16T09:39:39.721Z,16.10
2018-12-16T09:42:07.070Z,13.50
2018-12-16T09:44:35.001Z,15.27
2018-12-16T09:47:02.359Z,14.80
2018-12-16T09:49:29.692Z,14.73
2018-12-16T09:51:57.948Z,14.53
2018-12-16T09:54:25.280Z,15.07
2018-12-16T09:56:52.607Z,15.23
2018-12-16T09:59:19.907Z,14.53
2018-12-16T10:01:47.248Z,15.33
2018-12-16T10:04:14.567Z,14.57
2018-12-16T10:06:41.913Z,14.47
2018-12-16T10:09:09.199Z,15.20
2018-12-16T10:11:36.544Z,14.63
2018-12-16T10:14:03.893Z,15.60
2018-12-16T10:16:32.224Z,14.83
2018-12-16T10:19:00.463Z,14.50
2018-12-16T10:21:27.791Z,15.87
2018-12-16T10:23:55.966Z,15.30
2018-12-16T10:26:23.283Z,16.47
2018-12-16T10:28:51.531Z,15.70
2018-12-16T10:31:18.822Z,14.30
2018-12-16T10:33:46.181Z,14.97
2018-12-16T10:36:14.424Z,14.37
2018-12-16T10:38:41.732Z,13.40
2018-12-16T10:41:10.035Z,15.03
2018-12-16T10:43:38.314Z,13.27
2018-12-16T10:46:05.622Z,12.90
2018-12-16T10:48:32.957Z,13.33
2018-12-16T10:51:00.280Z,13.27
2018-12-16T10:53:27.608Z,13.93
2018-12-16T10:55:54.887Z,13.07
2018-12-16T10:58:23.202Z,13.20
2018-12-16T11:00:56.503Z,13.53
2018-12-16T11:03:23.812Z,12.20
2018-12-16T11:05:52.089Z,14.20
2018-12-16T11:08:19.404Z,13.67
2018-12-16T11:10:46.736Z,13.73
2018-12-16T11:13:14.217Z,13.77
2018-12-16T11:15:41.549Z,15.50
2018-12-16T11:18:08.867Z,14.37
2018-12-16T11:20:37.181Z,15.00
2018-12-16T11:23:04.500Z,13.87
2018-12-16T11:25:31.926Z,15.10
2018-12-16T11:28:00.211Z,15.10
2018-12-16T11:30:28.467Z,13.97
2018-12-16T11:32:55.762Z,13.10
2018-12-16T11:35:24.849Z,13.10
2018-12-16T11:37:52.220Z,13.60
2018-12-16T11:40:19.542Z,13.87
2018-12-16T11:42:46.917Z,13.23
2018-12-16T11:45:14.195Z,13.23
2018-12-16T11:47:42.444Z,14.60
2018-12-16T11:50:09.783Z,14.83
2018-12-16T11:52:39.104Z,14.17
2018-12-16T11:55:12.502Z,15.20
2018-12-16T11:57:35.736Z,14.17
2018-12-16T12:00:05.130Z,13.33
2018-12-16T12:02:32.920Z,14.17
2018-12-16T12:05:00.389Z,14.90
2018-12-16T12:07:27.749Z,14.37
2018-12-16T12:09:56.025Z,13.57
2018-12-16T12:12:24.251Z,13.37
2018-12-16T12:14:51.628Z,14.70
2018-12-16T12:17:19.914Z,13.43
2018-12-16T12:19:48.607Z,13.60
2018-12-16T12:22:15.944Z,13.10
2018-12-16T12:24:43.272Z,13.63
2018-12-16T12:27:11.585Z,15.37
2018-12-16T12:29:39.895Z,14.97
2018-12-16T12:32:07.247Z,14.33
2018-12-16T12:34:34.552Z,14.63
2018-12-16T12:37:02.831Z,14.13
2018-12-16T12:39:30.172Z,13.13
2018-12-16T12:41:57.546Z,14.83
2018-12-16T12:44:24.885Z,15.47
2018-12-16T12:46:53.192Z,14.77
2018-12-16T12:49:20.545Z,14.63
2018-12-16T12:51:47.937Z,13.93
2018-12-16T12:54:15.290Z,13.73
2018-12-16T12:56:42.630Z,14.03
2018-12-16T12:59:09.945Z,14.13
2018-12-16T13:01:37.301Z,12.13
2018-12-16T13:04:04.620Z,12.67
2018-12-16T13:06:31.974Z,13.13
2018-12-16T13:09:00.232Z,13.50
2018-12-16T13:11:27.565Z,13.63
2018-12-16T13:13:55.807Z,13.60
2018-12-16T13:16:23.158Z,14.30
2018-12-16T13:18:50.477Z,13.63
2018-12-16T13:21:17.796Z,13.17
2018-12-16T13:23:45.122Z,13.20
2018-12-16T13:26:14.444Z,12.90
2018-12-16T13:28:43.772Z,13.30
2018-12-16T13:31:12.004Z,14.40
2018-12-16T13:33:39.296Z,13.10
2018-12-16T13:36:08.413Z,14.03
2018-12-16T13:38:35.773Z,13.33
2018-12-16T13:41:03.113Z,12.13
2018-12-16T13:43:30.464Z,13.37
2018-12-16T13:45:57.792Z,12.70
2018-12-16T13:48:25.121Z,13.80
2018-12-16T13:50:52.440Z,13.07
2018-12-16T13:53:19.801Z,14.03
2018-12-16T13:55:47.238Z,12.30
2018-12-16T13:58:14.565Z,13.40
2018-12-16T14:00:41.908Z,13.03
2018-12-16T14:03:10.221Z,13.80
2018-12-16T14:05:37.629Z,12.90
2018-12-16T14:08:05.020Z,12.37
2018-12-16T14:10:34.345Z,12.50
2018-12-16T14:13:03.675Z,12.93
2018-12-16T14:15:30.979Z,14.13
2018-12-16T14:17:58.314Z,14.03
2018-12-16T14:20:25.636Z,12.50
2018-12-16T14:22:53.011Z,12.33
2018-12-16T14:25:20.349Z,13.57
2018-12-16T14:27:47.705Z,12.73
2018-12-16T14:30:15.953Z,12.90
2018-12-16T14:32:43.316Z,11.90
2018-12-16T14:35:11.206Z,13.93
2018-12-16T14:37:38.591Z,12.80
2018-12-16T14:40:07.025Z,12.77
2018-12-16T14:42:35.252Z,11.77
2018-12-16T14:45:02.712Z,13.20
2018-12-16T14:47:29.991Z,12.73
2018-12-16T14:49:57.361Z,12.87
2018-12-16T14:52:25.597Z,12.90
2018-12-16T14:54:53.832Z,12.63
2018-12-16T14:57:21.160Z,12.73
2018-12-16T14:59:48.517Z,12.90
2018-12-16T15:02:15.804Z,12.37
2018-12-16T15:04:43.132Z,13.43
2018-12-16T15:07:10.425Z,13.40
2018-12-16T15:09:37.822Z,12.60
2018-12-16T15:12:05.100Z,12.73
2018-12-16T15:14:32.407Z,13.90
2018-12-16T15:17:00.642Z,13.50
2018-12-16T15:19:27.951Z,12.43
2018-12-16T15:21:55.239Z,14.77
2018-12-16T15:24:22.667Z,14.27
2018-12-16T15:26:49.991Z,13.03
2018-12-16T15:29:17.271Z,14.10
2018-12-16T15:31:44.613Z,14.13
2018-12-16T15:34:12.934Z,13.50
2018-12-16T15:36:40.216Z,13.40
2018-12-16T15:39:07.644Z,13.97
2018-12-16T15:41:34.969Z,15.90
2018-12-16T15:44:04.202Z,14.20
2018-12-16T15:46:31.544Z,13.63
2018-12-16T15:48:59.865Z,12.60
2018-12-16T15:51:28.168Z,13.60
2018-12-16T15:53:55.633Z,13.30
2018-12-16T15:56:22.944Z,14.00
2018-12-16T15:58:51.228Z,16.37
2018-12-16T16:01:18.582Z,13.90
2018-12-16T16:03:46.831Z,14.97
2018-12-16T16:06:14.111Z,14.43
2018-12-16T16:08:41.470Z,14.20
2018-12-16T16:11:08.798Z,14.70
2018-12-16T16:13:36.147Z,14.13
2018-12-16T16:16:03.468Z,14.20
2018-12-16T16:18:30.788Z,15.10
2018-12-16T16:20:59.072Z,15.20
2018-12-16T16:23:26.359Z,15.93
2018-12-16T16:25:54.567Z,16.00
2018-12-16T16:28:22.905Z,15.00
2018-12-16T16:30:50.198Z,14.67
2018-12-16T16:33:17.781Z,15.47
2018-12-16T16:35:45.089Z,16.60
2018-12-16T16:38:12.434Z,17.40
2018-12-16T16:40:40.665Z,18.93
2018-12-16T16:43:07.992Z,20.97
2018-12-16T16:45:35.350Z,22.00
2018-12-16T16:48:02.726Z,20.70
2018-12-16T16:50:30.074Z,21.20
2018-12-16T16:52:59.413Z,17.70
2018-12-16T16:55:27.111Z,17.27
2018-12-16T16:57:56.401Z,18.67
2018-12-16T17:00:25.693Z,16.33
2018-12-16T17:02:53.028Z,17.50
2018-12-16T17:05:20.324Z,17.00
2018-12-16T17:07:47.682Z,18.00
2018-12-16T17:10:14.972Z,18.20
2018-12-16T17:12:43.278Z,18.77
2018-12-16T17:15:10.546Z,19.07
2018-12-16T17:17:38.837Z,16.90
2018-12-16T17:20:06.172Z,17.33
2018-12-16T17:22:33.515Z,17.10
2018-12-16T17:25:00.858Z,17.00
2018-12-16T17:27:28.135Z,17.57
2018-12-16T17:29:56.360Z,17.50
2018-12-16T17:32:24.605Z,17.03
2018-12-16T17:34:51.944Z,16.50
2018-12-16T17:37:19.528Z,17.50
2018-12-16T17:39:46.903Z,16.90
2018-12-16T17:42:14.249Z,18.13
2018-12-16T17:44:41.605Z,17.23
2018-12-16T17:47:08.953Z,17.33
2018-12-16T17:49:36.268Z,17.07
2018-12-16T17:52:03.592Z,16.50
2018-12-16T17:54:30.911Z,15.97
2018-12-16T17:56:58.293Z,16.10
2018-12-16T17:59:25.640Z,17.97
2018-12-16T18:01:53.084Z,16.70
2018-12-16T18:04:21.372Z,17.03
2018-12-16T18:06:49.651Z,17.10
2018-12-16T18:09:16.947Z,18.00
2018-12-16T18:11:44.254Z,16.83
2018-12-16T18:14:11.605Z,16.77
2018-12-16T18:16:39.920Z,17.10
2018-12-16T18:19:07.265Z,16.03
2018-12-16T18:21:34.592Z,16.53
2018-12-16T18:24:02.004Z,17.50
2018-12-16T18:26:29.316Z,16.90
2018-12-16T18:28:56.628Z,16.60
2018-12-16T18:31:24.948Z,17.33
2018-12-16T18:33:53.253Z,16.07
2018-12-16T18:36:20.588Z,15.60
2018-12-16T18:38:48.815Z,17.00
2018-12-16T18:41:17.103Z,17.07
2018-12-16T18:43:44.461Z,19.10
2018-12-16T18:46:11.748Z,21.60
2018-12-16T18:48:39.114Z,30.00
2018-12-16T18:51:06.491Z,22.13
2018-12-16T18:53:33.834Z,21.80
2018-12-16T18:56:02.109Z,18.73
2018-12-16T18:58:29.453Z,18.63
2018-12-16T19:00:56.759Z,18.50
2018-12-16T19:03:24.057Z,18.00
2018-12-16T19:05:51.384Z,17.83
2018-12-16T19:08:19.664Z,18.20
2018-12-16T19:10:48.976Z,18.00
2018-12-16T19:13:16.334Z,18.00
2018-12-16T19:15:44.646Z,18.30
2018-12-16T19:18:11.989Z,18.10
2018-12-16T19:20:39.380Z,18.07
2018-12-16T19:23:08.607Z,18.50
2018-12-16T19:25:35.970Z,18.23
2018-12-16T19:28:03.322Z,18.57
2018-12-16T19:30:30.666Z,17.90
2018-12-16T19:32:58.023Z,17.43
2018-12-16T19:35:26.270Z,17.63
2018-12-16T19:37:54.061Z,17.50
2018-12-16T19:40:21.409Z,18.33
2018-12-16T19:42:49.693Z,19.00
2018-12-16T19:45:17.021Z,18.57
2018-12-16T19:47:49.573Z,18.97
2018-12-16T19:50:14.636Z,18.07
2018-12-16T19:52:41.923Z,18.77
2018-12-16T19:55:09.322Z,18.33
2018-12-16T19:57:36.720Z,19.00
2018-12-16T20:00:06.830Z,17.67
2018-12-16T20:02:34.180Z,18.80
2018-12-16T20:05:04.689Z,19.30
2018-12-16T20:07:32.243Z,16.97
2018-12-16T20:10:00.595Z,17.53
2018-12-16T20:12:27.994Z,17.97
2018-12-16T20:14:55.315Z,17.93
2018-12-16T20:17:23.643Z,17.73
2018-12-16T20:19:51.016Z,17.80
2018-12-16T20:22:18.297Z,19.03
2018-12-16T20:24:45.661Z,19.80
2018-12-16T20:27:13.042Z,19.70
2018-12-16T20:29:40.366Z,21.10
2018-12-16T20:32:07.720Z,22.33
2018-12-16T20:34:36.031Z,24.87
2018-12-16T20:37:03.348Z,18.87
2018-12-16T20:39:30.643Z,21.60
2018-12-16T20:41:57.984Z,21.33
2018-12-16T20:44:25.340Z,19.40
2018-12-16T20:46:52.696Z,18.40
2018-12-16T20:49:20.013Z,19.33
2018-12-16T20:51:48.353Z,19.03
2018-12-16T20:54:16.673Z,18.80
2018-12-16T20:56:43.984Z,19.70
2018-12-16T20:59:11.306Z,18.87
2018-12-16T21:01:38.591Z,21.27
2018-12-16T21:04:06.893Z,19.90
2018-12-16T21:06:34.204Z,21.33
2018-12-16T21:09:01.534Z,20.23
2018-12-16T21:14:40.489Z,19.93
2018-12-16T21:17:13.712Z,20.23
2018-12-16T21:19:41.076Z,20.13
2018-12-16T21:22:09.196Z,20.00
2018-12-16T21:24:36.521Z,19.73
2018-12-16T21:27:03.988Z,18.93
2018-12-16T21:29:31.338Z,19.27
2018-12-16T21:31:58.741Z,20.60
2018-12-16T21:34:26.034Z,22.97
2018-12-16T21:36:53.360Z,21.80
2018-12-16T21:39:20.681Z,20.57
2018-12-16T21:41:49.277Z,21.87
2018-12-16T21:44:16.579Z,21.60
2018-12-16T21:46:44.809Z,20.37
2018-12-16T21:49:15.273Z,21.50
2018-12-16T21:51:42.584Z,20.10
2018-12-16T21:54:09.984Z,20.30
2018-12-16T21:56:37.407Z,20.40
2018-12-16T21:59:04.692Z,22.13
2018-12-16T22:01:32.000Z,20.20
2018-12-16T22:04:00.331Z,21.47
2018-12-16T22:06:27.632Z,22.00
2018-12-16T22:08:55.915Z,24.87
2018-12-16T22:11:23.274Z,32.97
2018-12-16T22:13:50.584Z,23.97
2018-12-16T22:16:18.876Z,29.37
2018-12-16T22:18:46.228Z,27.13
2018-12-16T22:21:13.544Z,26.23
2018-12-16T22:23:40.880Z,22.87
2018-12-16T22:26:08.241Z,21.90
2018-12-16T22:28:35.551Z,22.60
2018-12-16T22:31:02.913Z,23.07
2018-12-16T22:33:30.308Z,21.90
2018-12-16T22:35:57.551Z,22.53
2018-12-16T22:38:25.853Z,23.07
2018-12-16T22:40:53.246Z,22.77
2018-12-16T22:43:20.598Z,21.37
2018-12-16T22:45:47.904Z,22.67
2018-12-16T22:48:15.186Z,22.67
2018-12-16T22:50:43.416Z,22.17
2018-12-16T22:53:12.712Z,23.27
2018-12-16T22:55:41.016Z,21.83
2018-12-16T22:58:09.226Z,21.40
2018-12-16T23:00:38.431Z,21.87
2018-12-16T23:03:05.807Z,22.37
2018-12-16T23:05:33.154Z,21.07
2018-12-16T23:08:00.513Z,24.13
2018-12-16T23:10:27.824Z,21.97
2018-12-16T23:12:55.181Z,22.07
2018-12-16T23:15:22.497Z,21.73
2018-12-16T23:17:49.855Z,22.47
2018-12-16T23:20:19.383Z,21.80
2018-12-16T23:22:47.237Z,22.80
2018-12-16T23:25:14.638Z,23.57
2018-12-16T23:27:42.026Z,22.70
2018-12-16T23:30:09.315Z,22.10
2018-12-16T23:32:38.617Z,21.73
2018-12-16T23:35:06.901Z,21.37
2018-12-16T23:37:35.121Z,22.27
2018-12-16T23:40:02.415Z,21.57
2018-12-16T23:42:29.703Z,22.07
2018-12-16T23:44:57.269Z,23.47
2018-12-16T23:47:24.608Z,22.13
2018-12-16T23:49:51.928Z,22.67
2018-12-16T23:52:19.252Z,22.80
2018-12-16T23:54:47.529Z,22.67
2018-12-16T23:57:15.820Z,23.30
2018-12-16T23:59:43.152Z,22.13
